Time;durP1;ratioP1;P1;durP2;ratioP2;P2;SDS_P1;SDS_P2;PMS_P1;PMS_P2;Temp;Humidity;BMP_temperature;BMP_pressure;BME280_temperature;BME280_humidity;BME280_pressure;Samples;Min_cycle;Max_cycle;Signal;HPM_P1;HPM_P2
2023/02/08 00:01:15;;;;;;;5.63;2.38;;;;;;;6.69;100.00;102127.31;2096680;28;20686;-89
2023/02/08 00:02:37;;;;;;;3.53;1.88;;;;;;;6.69;100.00;102122.97;2086015;28;20107;-89
2023/02/08 00:03:59;;;;;;;3.97;1.83;;;;;;;6.69;100.00;102120.34;2091371;28;20044;-88
2023/02/08 00:05:21;;;;;;;6.15;1.92;;;;;;;6.67;100.00;102129.88;2102556;28;20040;-88
2023/02/08 00:06:43;;;;;;;4.85;2.08;;;;;;;6.68;100.00;102136.91;2102231;28;20454;-89
2023/02/08 00:08:06;;;;;;;4.00;1.90;;;;;;;6.69;100.00;102125.59;2096948;28;20048;-88
2023/02/08 00:09:29;;;;;;;10.18;2.58;;;;;;;6.73;100.00;102137.16;2096229;28;20043;-88
2023/02/08 00:10:50;;;;;;;5.45;2.25;;;;;;;6.77;100.00;102136.47;2091869;28;20052;-88
2023/02/08 00:12:14;;;;;;;7.53;2.15;;;;;;;6.81;100.00;102130.59;2093543;28;20141;-88
2023/02/08 00:13:36;;;;;;;5.88;2.25;;;;;;;6.84;100.00;102138.59;2098046;28;20082;-88
2023/02/08 00:14:58;;;;;;;5.72;2.53;;;;;;;6.83;100.00;102136.81;2093937;28;20097;-87
2023/02/08 00:16:20;;;;;;;8.55;2.88;;;;;;;6.84;100.00;102130.75;2085955;28;20497;-87
2023/02/08 00:17:43;;;;;;;6.45;2.25;;;;;;;6.84;100.00;102122.84;2094125;28;20052;-86
2023/02/08 00:19:04;;;;;;;9.18;2.35;;;;;;;6.87;100.00;102145.75;2096197;28;20040;-87
2023/02/08 00:20:28;;;;;;;4.70;2.17;;;;;;;6.87;100.00;102151.91;2101466;28;20048;-86
2023/02/08 00:21:50;;;;;;;7.88;3.10;;;;;;;6.89;100.00;102136.25;2088504;28;20049;-87
2023/02/08 00:23:13;;;;;;;7.10;2.47;;;;;;;6.88;100.00;102144.94;2091263;28;20071;-87
2023/02/08 00:24:35;;;;;;;4.88;2.00;;;;;;;6.89;100.00;102131.00;2094574;28;20087;-87
2023/02/08 00:25:56;;;;;;;4.47;2.17;;;;;;;6.90;100.00;102141.56;2089941;28;20062;-87
2023/02/08 00:27:20;;;;;;;9.27;2.60;;;;;;;6.91;100.00;102140.72;2100781;28;20036;-87
2023/02/08 00:28:41;;;;;;;8.23;2.70;;;;;;;6.92;100.00;102150.41;2102281;28;20051;-86
2023/02/08 00:30:05;;;;;;;8.98;2.40;;;;;;;6.95;100.00;102137.47;2081917;28;20132;-87
2023/02/08 00:31:27;;;;;;;7.07;2.10;;;;;;;7.00;100.00;102149.09;2094420;28;20597;-87
2023/02/08 00:32:49;;;;;;;4.80;2.15;;;;;;;7.03;100.00;102146.63;2087432;28;20048;-87
2023/02/08 00:34:13;;;;;;;7.20;1.80;;;;;;;7.06;100.00;102143.25;2100501;28;20099;-86
2023/02/08 00:35:35;;;;;;;3.85;1.65;;;;;;;7.06;100.00;102144.16;2098575;28;20049;-86
2023/02/08 00:36:57;;;;;;;7.15;2.30;;;;;;;7.03;100.00;102138.75;2094612;28;20045;-87
2023/02/08 00:38:19;;;;;;;6.93;1.88;;;;;;;7.03;100.00;102157.13;2103846;28;20055;-86
2023/02/08 00:39:41;;;;;;;9.30;2.42;;;;;;;7.04;100.00;102156.31;2097356;28;20388;-86
2023/02/08 00:41:04;;;;;;;4.82;2.08;;;;;;;7.05;100.00;102155.50;2094382;28;20413;-85
2023/02/08 00:42:29;;;;;;;6.25;1.60;;;;;;;7.06;100.00;102159.91;2095621;28;20044;-85
2023/02/08 00:43:51;;;;;;;6.22;1.55;;;;;;;7.05;100.00;102150.22;2087891;28;20060;-86
2023/02/08 00:45:12;;;;;;;4.70;1.85;;;;;;;7.07;100.00;102142.44;2092797;28;20037;-85
2023/02/08 00:46:34;;;;;;;5.35;1.73;;;;;;;7.05;100.00;102155.50;2094473;28;20493;-86
2023/02/08 00:47:56;;;;;;;5.28;1.92;;;;;;;7.05;100.00;102149.34;2097343;28;20045;-86
2023/02/08 00:49:18;;;;;;;7.07;2.55;;;;;;;7.06;100.00;102149.41;2085284;28;20205;-86
2023/02/08 00:50:39;;;;;;;5.75;2.33;;;;;;;7.09;100.00;102144.31;2084697;28;20048;-85
2023/02/08 00:52:02;;;;;;;6.32;1.88;;;;;;;7.09;100.00;102141.69;2093024;28;20108;-86
2023/02/08 00:53:23;;;;;;;3.92;2.22;;;;;;;7.09;100.00;102138.16;2103887;28;20036;-85
2023/02/08 00:54:45;;;;;;;5.68;1.95;;;;;;;7.10;100.00;102146.13;2089508;28;20047;-85
2023/02/08 00:56:09;;;;;;;6.57;2.20;;;;;;;7.12;100.00;102141.84;2095406;28;20078;-85
2023/02/08 00:57:33;;;;;;;6.57;1.90;;;;;;;7.14;100.00;102150.72;2089904;28;20295;-86
2023/02/08 00:58:55;;;;;;;7.38;1.90;;;;;;;7.16;100.00;102143.81;2087027;28;20060;-86
2023/02/08 01:00:17;;;;;;;5.45;2.35;;;;;;;7.15;100.00;102134.13;2094763;28;20060;-86
2023/02/08 01:01:39;;;;;;;7.32;2.38;;;;;;;7.15;100.00;102143.75;2092565;28;20056;-86
2023/02/08 01:03:02;;;;;;;;;;;;;;;7.09;100.00;102161.78;2098142;28;20436;-86
2023/02/08 01:04:24;;;;;;;;;;;;;;;7.01;100.00;102168.38;2090281;28;19920;-84
2023/02/08 01:05:45;;;;;;;7.05;2.15;;;;;;;7.00;100.00;102146.47;2086234;28;19928;-85
2023/02/08 01:07:08;;;;;;;8.65;2.67;;;;;;;7.01;100.00;102161.41;2087008;28;20739;-84
2023/02/08 01:08:29;;;;;;;3.55;2.03;;;;;;;7.01;100.00;102169.28;2087800;28;20525;-84
2023/02/08 01:09:51;;;;;;;5.03;2.03;;;;;;;6.98;100.00;102174.38;2093510;28;20041;-84
2023/02/08 01:11:17;;;;;;;7.07;1.95;;;;;;;6.98;100.00;102174.38;2092849;28;20052;-85
2023/02/08 01:12:41;;;;;;;6.28;1.90;;;;;;;6.99;100.00;102186.69;2081482;28;20041;-85
2023/02/08 01:14:03;;;;;;;7.35;2.45;;;;;;;7.00;100.00;102174.44;2084687;28;20049;-84
2023/02/08 01:15:24;;;;;;;5.60;1.40;;;;;;;7.00;100.00;102174.44;2087097;28;20046;-84
2023/02/08 01:16:47;;;;;;;6.90;2.50;;;;;;;7.00;100.00;102179.69;2087324;28;20094;-84
2023/02/08 01:18:09;;;;;;;4.30;2.10;;;;;;;7.02;100.00;102191.19;2086885;28;20056;-84
2023/02/08 01:19:32;;;;;;;5.97;2.05;;;;;;;7.03;100.00;102182.47;2087084;28;20055;-84
2023/02/08 01:20:53;;;;;;;8.25;2.30;;;;;;;7.02;100.00;102188.56;2098206;28;20053;-83
2023/02/08 01:22:16;;;;;;;4.20;2.05;;;;;;;7.03;100.00;102178.13;2086807;28;20037;-84
2023/02/08 01:23:37;;;;;;;4.30;2.00;;;;;;;7.06;100.00;102194.06;2093489;28;20113;-84
2023/02/08 01:25:00;;;;;;;4.88;1.77;;;;;;;7.08;100.00;102188.91;2090466;28;20124;-84
2023/02/08 01:26:22;;;;;;;4.88;1.65;;;;;;;7.13;100.00;102190.03;2102716;28;20048;-85
2023/02/08 01:27:46;;;;;;;3.65;1.67;;;;;;;7.13;100.00;102193.56;2103991;28;20526;-84
2023/02/08 01:29:08;;;;;;;5.38;1.80;;;;;;;7.09;100.00;102196.81;2097372;28;20040;-84
2023/02/08 01:30:29;;;;;;;4.47;1.50;;;;;;;7.08;100.00;102196.78;2094449;28;20071;-85
2023/02/08 01:31:52;;;;;;;2.97;1.23;;;;;;;7.05;100.00;102180.84;2097942;28;20045;-85
2023/02/08 01:33:13;;;;;;;5.75;1.70;;;;;;;7.01;100.00;102192.91;2095420;28;20044;-83
2023/02/08 01:34:36;;;;;;;4.68;1.77;;;;;;;6.99;100.00;102194.56;2097820;28;20058;-82
2023/02/08 01:35:58;;;;;;;5.10;2.15;;;;;;;6.96;100.00;102191.75;2086678;28;20049;-83
2023/02/08 01:37:21;;;;;;;2.97;1.55;;;;;;;6.89;100.00;102192.28;2091985;28;20123;-83
2023/02/08 01:38:43;;;;;;;6.50;1.98;;;;;;;6.87;100.00;102193.91;2094908;28;20056;-83
2023/02/08 01:40:06;;;;;;;5.93;2.00;;;;;;;6.88;100.00;102187.84;2103730;28;20043;-83
2023/02/08 01:41:31;;;;;;;5.50;2.08;;;;;;;6.90;100.00;102180.91;2097795;28;20436;-84
2023/02/08 01:42:55;;;;;;;7.18;2.47;;;;;;;6.91;100.00;102180.09;2095309;28;20157;-84
2023/02/08 01:44:53;;;;;;;5.38;1.70;;;;;;;6.92;100.00;102184.53;2083951;28;20452;-83
2023/02/08 01:46:15;;;;;;;8.85;2.20;;;;;;;6.94;100.00;102185.53;2089692;28;20037;-84
2023/02/08 01:47:38;;;;;;;4.57;1.70;;;;;;;6.99;100.00;102173.56;2092419;28;20102;-85
2023/02/08 01:49:04;;;;;;;6.95;2.35;;;;;;;7.03;100.00;102174.59;2095213;28;20053;-85
2023/02/08 01:50:32;;;;;;;7.63;2.25;;;;;;;7.05;100.00;102188.72;2095997;28;20049;-84
2023/02/08 01:51:59;;;;;;;5.30;1.73;;;;;;;7.05;100.00;102176.50;2089615;28;20040;-84
2023/02/08 01:53:23;;;;;;;4.75;1.50;;;;;;;7.06;100.00;102185.28;2095486;28;20104;-84
2023/02/08 01:54:51;;;;;;;5.35;1.70;;;;;;;7.05;100.00;102188.72;2095445;28;20536;-84
2023/02/08 01:56:20;;;;;;;7.55;2.00;;;;;;;7.05;100.00;102199.22;2089264;28;20099;-85
2023/02/08 01:57:42;;;;;;;6.55;2.05;;;;;;;7.04;100.00;102179.03;2087422;28;20139;-84
2023/02/08 01:59:11;;;;;;;2.92;1.38;;;;;;;7.06;100.00;102182.66;2078741;28;20057;-84
2023/02/08 02:00:33;;;;;;;6.47;1.70;;;;;;;7.07;100.00;102174.84;2085399;28;20056;-84
2023/02/08 02:01:57;;;;;;;6.45;1.80;;;;;;;7.06;100.00;102186.19;2081077;28;20061;-84
2023/02/08 02:03:23;;;;;;;6.40;2.10;;;;;;;7.06;100.00;102185.28;2084554;28;20139;-85
2023/02/08 02:04:46;;;;;;;6.40;1.90;;;;;;;7.03;100.00;102198.22;2088671;28;20070;-84
2023/02/08 02:06:11;;;;;;;5.90;2.05;;;;;;;7.01;100.00;102187.66;2086835;28;20103;-84
2023/02/08 02:07:33;;;;;;;8.73;1.63;;;;;;;7.00;100.00;102193.72;2087129;28;20570;-83
2023/02/08 02:09:03;;;;;;;7.88;2.53;;;;;;;7.01;100.00;102199.88;2078238;28;20068;-84
2023/02/08 02:10:28;;;;;;;7.88;2.42;;;;;;;6.99;100.00;102191.03;2077472;28;20053;-84
2023/02/08 02:11:50;;;;;;;5.32;1.65;;;;;;;6.98;100.00;102200.63;2076195;28;20049;-84
2023/02/08 02:13:17;;;;;;;5.53;1.50;;;;;;;6.98;100.00;102191.84;2082608;28;20037;-84
2023/02/08 02:14:40;;;;;;;3.97;1.20;;;;;;;6.97;100.00;102195.28;2085979;28;20083;-84
2023/02/08 02:16:05;;;;;;;6.97;1.75;;;;;;;6.98;100.00;102187.50;2086323;28;20084;-83
2023/02/08 02:17:27;;;;;;;6.82;2.10;;;;;;;6.98;100.00;102197.09;2087156;28;20049;-84
2023/02/08 02:18:49;;;;;;;5.43;1.83;;;;;;;6.98;100.00;102183.97;2081873;28;20045;-85
2023/02/08 02:20:17;;;;;;;4.97;1.83;;;;;;;7.01;100.00;102185.03;2086456;28;20509;-85
2023/02/08 02:21:54;;;;;;;5.88;2.67;;;;;;;7.04;100.00;102190.44;2088570;28;20056;-84
2023/02/08 02:23:51;;;;;;;5.15;1.60;;;;;;;7.07;100.00;102182.75;2096668;28;20053;-86
2023/02/08 02:25:47;;;;;;;8.05;1.92;;;;;;;7.09;100.00;102191.56;2080778;28;20425;-85
2023/02/08 02:27:40;;;;;;;3.75;1.60;;;;;;;7.09;100.00;102180.16;2088979;28;20087;-84
2023/02/08 02:29:44;;;;;;;4.10;1.40;;;;;;;7.05;100.00;102194.88;2080719;28;20420;-84
2023/02/08 02:31:39;;;;;;;5.60;1.45;;;;;;;7.03;100.00;102193.88;2096889;28;20063;-84
2023/02/08 02:33:34;;;;;;;4.47;1.52;;;;;;;7.03;100.00;102214.88;2088242;28;20056;-84
2023/02/08 02:35:03;;;;;;;8.15;1.70;;;;;;;7.01;100.00;102211.28;2082923;28;20061;-82
2023/02/08 02:36:37;;;;;;;4.10;1.85;;;;;;;7.01;100.00;102195.53;2079774;28;20047;-84
2023/02/08 02:38:12;;;;;;;4.78;1.33;;;;;;;7.00;100.00;102219.06;2088874;28;20717;-82
2023/02/08 02:39:43;;;;;;;3.25;1.25;;;;;;;7.01;100.00;102206.03;2088018;28;21660;-84
2023/02/08 02:41:11;;;;;;;4.00;1.20;;;;;;;7.01;100.00;102227.03;2080815;28;20053;-84
2023/02/08 02:44:33;;;;;;;5.18;1.63;;;;;;;7.01;100.00;102227.03;2084150;28;20056;-85
2023/02/08 02:46:01;;;;;;;4.85;1.65;;;;;;;7.01;100.00;102216.53;2087640;28;20135;-85
2023/02/08 02:47:41;;;;;;;4.38;1.55;;;;;;;7.00;100.00;102220.00;2076449;28;20030;-84
2023/02/08 02:49:10;;;;;;;4.90;1.70;;;;;;;7.02;100.00;102217.44;2093191;28;20045;-84
2023/02/08 02:50:37;;;;;;;6.53;1.88;;;;;;;7.02;100.00;102218.31;2087367;28;20091;-83
2023/02/08 02:52:05;;;;;;;8.88;1.92;;;;;;;7.04;100.00;102216.69;2094293;28;20059;-83
2023/02/08 02:53:36;;;;;;;6.85;2.30;;;;;;;7.05;100.00;102215.88;2087900;28;20052;-83
2023/02/08 02:55:05;;;;;;;7.85;2.15;;;;;;;7.03;100.00;102211.34;2094692;28;20624;-83
2023/02/08 02:56:32;;;;;;;6.38;1.40;;;;;;;7.00;100.00;102219.06;2095768;28;20134;-84
2023/02/08 02:57:58;;;;;;;5.60;2.38;;;;;;;6.97;100.00;102219.81;2086872;28;20041;-84
2023/02/08 02:59:22;;;;;;;7.10;1.88;;;;;;;6.97;100.00;102221.53;2093300;28;20511;-84
2023/02/08 03:00:52;;;;;;;7.00;1.77;;;;;;;6.95;100.00;102229.34;2102572;28;20036;-85
2023/02/08 03:02:14;;;;;;;5.82;1.60;;;;;;;6.98;100.00;102234.75;2088805;28;20043;-84
2023/02/08 03:03:37;;;;;;;5.35;1.83;;;;;;;6.99;100.00;102231.31;2092211;28;20051;-85
2023/02/08 03:04:59;;;;;;;5.68;2.05;;;;;;;6.98;100.00;102221.63;2098544;28;20048;-84
2023/02/08 03:06:31;;;;;;;5.72;2.00;;;;;;;7.00;100.00;102219.06;2103114;28;20466;-84
2023/02/08 03:08:16;;;;;;;5.70;2.40;;;;;;;6.97;100.00;102222.44;2102361;28;20054;-84
2023/02/08 03:09:56;;;;;;;4.70;2.80;;;;;;;6.98;100.00;102236.47;2105632;28;20060;-83
2023/02/08 03:11:22;;;;;;;5.97;1.92;;;;;;;6.97;100.00;102230.31;2088754;28;20048;-83
2023/02/08 03:12:53;;;;;;;8.10;2.00;;;;;;;6.96;100.00;102222.34;2093031;28;20049;-84
2023/02/08 03:14:26;;;;;;;4.30;1.60;;;;;;;6.95;100.00;102218.84;2095826;28;20044;-85
2023/02/08 03:16:01;;;;;;;5.38;1.73;;;;;;;6.93;100.00;102223.09;2097295;28;20121;-85
2023/02/08 03:17:34;;;;;;;8.18;1.63;;;;;;;6.91;100.00;102232.59;2096914;28;20112;-84
2023/02/08 03:19:06;;;;;;;4.75;1.70;;;;;;;6.87;100.00;102230.66;2102480;28;20055;-83
2023/02/08 03:20:33;;;;;;;4.53;1.77;;;;;;;6.88;100.00;102242.97;2088772;28;20605;-84
2023/02/08 03:21:57;;;;;;;4.25;1.63;;;;;;;6.88;100.00;102239.44;2093598;28;20056;-84
2023/02/08 03:23:26;;;;;;;4.28;2.13;;;;;;;6.90;100.00;102235.13;2098587;28;20093;-81
2023/02/08 03:24:54;;;;;;;5.95;1.45;;;;;;;6.93;100.00;102238.84;2097161;28;20052;-83
2023/02/08 03:26:23;;;;;;;3.88;1.52;;;;;;;6.95;100.00;102237.22;2103708;28;20058;-83
2023/02/08 03:27:53;;;;;;;6.30;1.38;;;;;;;6.99;100.00;102248.78;2096971;28;20074;-82
2023/02/08 03:29:25;;;;;;;8.18;2.08;;;;;;;6.99;100.00;102233.94;2096853;28;20072;-83
2023/02/08 03:30:59;;;;;;;;;;;;;;;6.94;100.00;102226.63;2096395;28;20048;-84
2023/02/08 03:32:27;;;;;;;5.38;1.95;;;;;;;6.98;100.00;102240.00;2096071;28;19921;-84
2023/02/08 03:33:54;;;;;;;7.05;1.90;;;;;;;7.02;100.00;102235.81;2095069;28;20120;-85
2023/02/08 03:35:24;;;;;;;10.05;3.25;;;;;;;7.02;100.00;102251.59;2094977;28;20052;-83
2023/02/08 03:36:49;;;;;;;14.93;3.92;;;;;;;6.99;100.00;102251.41;2095313;28;20177;-83
2023/02/08 03:38:19;;;;;;;15.48;7.78;;;;;;;6.99;100.00;102256.66;2095555;28;20062;-83
2023/02/08 03:39:42;;;;;;;11.50;4.07;;;;;;;7.01;100.00;102253.31;2086975;28;20239;-83
2023/02/08 03:41:13;;;;;;;8.68;2.97;;;;;;;7.05;100.00;102255.25;2086487;28;20076;-82
2023/02/08 03:42:36;;;;;;;3.28;1.95;;;;;;;7.07;100.00;102252.72;2095466;28;20071;-83
2023/02/08 03:44:04;;;;;;;4.25;1.80;;;;;;;7.07;100.00;102252.72;2088668;28;20094;-83
2023/02/08 03:45:31;;;;;;;6.38;2.53;;;;;;;7.05;100.00;102264.84;2088838;28;20060;-82
2023/02/08 03:46:57;;;;;;;4.10;3.00;;;;;;;7.01;100.00;102258.56;2094914;28;20045;-83
2023/02/08 03:48:23;;;;;;;5.60;3.00;;;;;;;6.99;100.00;102262.81;2088392;28;20140;-83
2023/02/08 03:49:50;;;;;;;4.70;1.85;;;;;;;6.96;100.00;102264.34;2094778;28;20478;-83
2023/02/08 03:51:15;;;;;;;6.75;2.67;;;;;;;6.97;100.00;102266.16;2103337;28;20040;-83
2023/02/08 03:52:38;;;;;;;7.35;2.95;;;;;;;6.97;100.00;102272.31;2088645;28;20057;-82
2023/02/08 03:54:03;;;;;;;8.27;4.00;;;;;;;6.99;100.00;102270.69;2091724;28;20059;-83
2023/02/08 03:55:29;;;;;;;8.30;2.72;;;;;;;6.99;100.00;102270.69;2086439;28;20053;-82
2023/02/08 03:56:57;;;;;;;5.95;2.63;;;;;;;6.98;100.00;102263.63;2094468;28;20057;-81
2023/02/08 03:58:25;;;;;;;7.78;3.70;;;;;;;7.02;100.00;102269.97;2088910;28;20389;-82
2023/02/08 03:59:54;;;;;;;7.03;3.40;;;;;;;7.04;100.00;102277.06;2089610;28;20061;-82
2023/02/08 04:01:23;;;;;;;7.35;3.83;;;;;;;7.05;100.00;102277.97;2088506;28;20056;-83
2023/02/08 04:02:54;;;;;;;7.60;3.00;;;;;;;7.04;100.00;102268.28;2096667;28;20052;-83
2023/02/08 04:04:19;;;;;;;9.43;2.05;;;;;;;7.00;100.00;102282.09;2090158;28;20037;-84
2023/02/08 04:05:42;;;;;;;6.43;2.17;;;;;;;6.94;100.00;102282.66;2088978;28;20057;-83
2023/02/08 04:07:05;;;;;;;10.35;2.75;;;;;;;6.90;100.00;102292.88;2093207;28;20111;-83
2023/02/08 04:08:27;;;;;;;4.18;1.92;;;;;;;6.89;100.00;102304.22;2098685;28;20523;-83
2023/02/08 04:09:50;;;;;;;5.93;1.98;;;;;;;6.87;100.00;102277.91;2096001;28;20522;-84
2023/02/08 04:11:12;;;;;;;5.22;2.20;;;;;;;6.85;100.00;102276.91;2094976;28;20098;-82
2023/02/08 04:12:33;;;;;;;3.38;1.67;;;;;;;6.83;100.00;102293.41;2095396;28;20115;-83
2023/02/08 04:13:55;;;;;;;5.93;1.52;;;;;;;6.80;100.00;102295.03;2102149;28;20051;-82
2023/02/08 04:15:18;;;;;;;5.57;1.67;;;;;;;6.78;100.00;102291.41;2104396;28;20383;-83
2023/02/08 04:16:40;;;;;;;8.30;1.80;;;;;;;6.76;100.00;102287.78;2104488;28;20044;-83
2023/02/08 04:18:02;;;;;;;7.32;2.67;;;;;;;6.77;100.00;102296.56;2103927;28;20133;-83
2023/02/08 04:19:24;;;;;;;6.10;2.42;;;;;;;6.80;100.00;102283.63;2088592;28;20045;-83
2023/02/08 04:20:47;;;;;;;6.55;2.10;;;;;;;6.82;100.00;102284.63;2098463;28;20048;-84
2023/02/08 04:22:10;;;;;;;6.28;2.05;;;;;;;6.86;100.00;102289.22;2095636;28;20699;-84
2023/02/08 04:23:32;;;;;;;8.77;2.40;;;;;;;6.88;100.00;102278.81;2096197;28;20048;-85
2023/02/08 04:24:54;;;;;;;5.85;2.40;;;;;;;6.90;100.00;102292.88;2098550;28;20059;-86
2023/02/08 04:26:16;;;;;;;8.95;3.53;;;;;;;6.87;100.00;102293.66;2098423;28;20040;-85
2023/02/08 04:27:38;;;;;;;7.68;3.10;;;;;;;6.87;100.00;102301.50;2095968;28;20485;-85
2023/02/08 04:29:01;;;;;;;9.15;2.40;;;;;;;6.87;100.00;102291.03;2102914;28;20484;-85
2023/02/08 04:30:24;;;;;;;5.45;2.40;;;;;;;6.86;100.00;102302.34;2105028;28;20044;-83
2023/02/08 04:31:45;;;;;;;7.18;2.42;;;;;;;6.85;100.00;102307.50;2098600;28;20503;-86
2023/02/08 04:33:07;;;;;;;6.10;2.40;;;;;;;6.83;100.00;102309.16;2098404;28;20044;-85
2023/02/08 04:34:28;;;;;;;8.07;3.10;;;;;;;6.84;100.00;102305.66;2095646;28;20049;-85
2023/02/08 04:35:51;;;;;;;6.45;2.92;;;;;;;6.80;100.00;102308.16;2098771;28;20056;-86
2023/02/08 04:37:14;;;;;;;13.77;5.22;;;;;;;6.78;100.00;102320.28;2090219;28;20029;-85
2023/02/08 04:38:37;;;;;;;8.02;3.65;;;;;;;6.78;100.00;102309.78;2095689;28;20117;-85
2023/02/08 04:40:01;;;;;;;13.38;4.65;;;;;;;6.75;100.00;102313.97;2098359;28;20766;-84
2023/02/08 04:41:24;;;;;;;8.27;3.03;;;;;;;6.70;100.00;102321.56;2103617;28;20044;-84
2023/02/08 04:42:46;;;;;;;3.63;2.05;;;;;;;6.71;100.00;102325.09;2102831;28;20059;-84
2023/02/08 04:44:08;;;;;;;4.35;1.90;;;;;;;6.69;100.00;102322.41;2106885;28;20052;-82
2023/02/08 04:45:31;;;;;;;4.63;1.75;;;;;;;6.68;100.00;102307.47;2095572;28;20393;-84
2023/02/08 04:46:54;;;;;;;6.55;2.30;;;;;;;6.67;100.00;102318.78;2097908;28;20051;-83
2023/02/08 04:48:17;;;;;;;7.82;3.13;;;;;;;6.67;100.00;102307.38;2086177;28;20037;-80
2023/02/08 04:49:40;;;;;;;5.32;2.75;;;;;;;6.64;100.00;102315.06;2101743;28;20059;-84
2023/02/08 04:51:02;;;;;;;7.07;2.55;;;;;;;6.64;100.00;102315.06;2098288;28;20098;-83
2023/02/08 04:52:26;;;;;;;4.43;2.00;;;;;;;6.64;100.00;102313.34;2098286;28;20064;-83
2023/02/08 04:53:48;;;;;;;6.60;2.70;;;;;;;6.63;100.00;102305.41;2095281;28;20539;-83
2023/02/08 04:55:10;;;;;;;5.55;2.42;;;;;;;6.63;100.00;102315.91;2095512;28;20063;-83
2023/02/08 04:56:32;;;;;;;9.05;3.65;;;;;;;6.61;100.00;102318.44;2096053;28;20044;-83
2023/02/08 04:57:54;;;;;;;7.03;2.78;;;;;;;6.58;100.00;102319.97;2103805;28;20056;-83
2023/02/08 04:59:15;;;;;;;5.85;2.55;;;;;;;6.58;100.00;102331.38;2087184;28;20044;-83
2023/02/08 05:00:37;;;;;;;7.85;3.45;;;;;;;6.58;100.00;102318.25;2102662;28;20647;-83
2023/02/08 05:01:59;;;;;;;6.72;3.25;;;;;;;6.62;100.00;102327.22;2106521;28;20086;-83
2023/02/08 05:03:21;;;;;;;6.60;2.58;;;;;;;6.65;100.00;102327.38;2103812;28;20146;-83
2023/02/08 05:04:43;;;;;;;5.15;2.05;;;;;;;6.70;100.00;102333.78;2095408;28;20127;-83
2023/02/08 05:06:06;;;;;;;6.43;2.35;;;;;;;6.71;100.00;102326.00;2092716;28;20057;-84
2023/02/08 05:07:29;;;;;;;6.53;2.95;;;;;;;6.72;100.00;102326.91;2100889;28;20047;-84
2023/02/08 05:08:51;;;;;;;5.78;2.17;;;;;;;6.75;100.00;102332.34;2098598;28;20056;-84
2023/02/08 05:10:14;;;;;;;5.53;2.67;;;;;;;6.77;100.00;102330.69;2094536;28;20048;-83
2023/02/08 05:11:36;;;;;;;4.60;2.50;;;;;;;6.79;100.00;102329.06;2095680;28;20565;-85
2023/02/08 05:12:59;;;;;;;5.78;2.95;;;;;;;6.82;100.00;102320.47;2095521;28;20048;-83
2023/02/08 05:14:21;;;;;;;4.40;2.50;;;;;;;6.83;100.00;102322.28;2095236;28;20041;-84
2023/02/08 05:15:42;;;;;;;5.78;3.15;;;;;;;6.84;100.00;102319.69;2096610;28;20496;-84
2023/02/08 05:17:05;;;;;;;8.25;3.20;;;;;;;6.87;100.00;102322.50;2112225;28;20051;-84
2023/02/08 05:18:26;;;;;;;5.25;2.95;;;;;;;6.91;100.00;102318.31;2103658;28;20040;-84
2023/02/08 05:19:48;;;;;;;8.02;4.35;;;;;;;6.94;100.00;102324.66;2097856;28;20147;-84
2023/02/08 05:21:11;;;;;;;5.25;3.35;;;;;;;6.98;100.00;102318.75;2095590;28;20053;-84
2023/02/08 05:22:35;;;;;;;6.18;2.83;;;;;;;7.01;100.00;102318.94;2089670;28;20049;-84
2023/02/08 05:23:57;;;;;;;8.55;4.97;;;;;;;7.02;100.00;102323.34;2100723;28;20467;-83
2023/02/08 05:25:19;;;;;;;8.57;4.45;;;;;;;7.03;100.00;102337.38;2097990;28;20582;-84
2023/02/08 05:26:42;;;;;;;8.57;2.83;;;;;;;7.04;100.00;102339.19;2103325;28;20044;-85
2023/02/08 05:28:04;;;;;;;11.65;3.70;;;;;;;7.02;100.00;102333.84;2089877;28;20053;-84
2023/02/08 05:29:26;;;;;;;5.55;2.55;;;;;;;7.03;100.00;102329.50;2102684;28;20043;-82
2023/02/08 05:30:49;;;;;;;6.35;2.70;;;;;;;7.05;100.00;102333.13;2095043;28;20048;-85
2023/02/08 05:32:11;;;;;;;6.95;2.30;;;;;;;7.07;100.00;102336.75;2095396;28;20512;-84
2023/02/08 05:33:32;;;;;;;6.80;2.10;;;;;;;7.08;100.00;102344.72;2095257;28;20051;-83
2023/02/08 05:34:55;;;;;;;5.18;2.33;;;;;;;7.07;100.00;102348.16;2094958;28;20056;-86
2023/02/08 05:36:18;;;;;;;7.60;2.28;;;;;;;7.08;100.00;102349.97;2098101;28;20052;-84
2023/02/08 05:37:41;;;;;;;4.25;1.85;;;;;;;7.14;100.00;102354.66;2097753;28;20492;-84
2023/02/08 05:39:04;;;;;;;5.75;2.38;;;;;;;7.17;100.00;102363.56;2093421;28;20036;-85
2023/02/08 05:40:25;;;;;;;5.43;2.00;;;;;;;7.22;100.00;102362.94;2097009;28;20048;-85
2023/02/08 05:41:48;;;;;;;5.18;1.88;;;;;;;7.22;100.00;102364.72;2092342;28;20890;-84
2023/02/08 05:43:10;;;;;;;5.43;2.33;;;;;;;7.24;100.00;102369.16;2097253;28;20047;-85
2023/02/08 05:44:32;;;;;;;5.00;1.85;;;;;;;7.27;100.00;102366.72;2094532;28;20060;-85
2023/02/08 05:45:53;;;;;;;4.78;2.05;;;;;;;7.28;100.00;102355.41;2093639;28;20055;-85
2023/02/08 05:47:16;;;;;;;5.13;2.00;;;;;;;7.25;100.00;102352.59;2094651;28;20045;-84
2023/02/08 05:48:38;;;;;;;10.57;5.93;;;;;;;7.23;100.00;102355.13;2094122;28;20134;-85
2023/02/08 05:50:00;;;;;;;7.18;2.72;;;;;;;7.23;100.00;102349.88;2096980;28;20067;-84
2023/02/08 05:51:23;;;;;;;5.57;3.25;;;;;;;7.28;100.00;102358.03;2101806;28;20032;-85
2023/02/08 05:52:46;;;;;;;5.68;1.95;;;;;;;7.34;100.00;102350.47;2097607;28;20048;-84
2023/02/08 05:54:09;;;;;;;4.70;2.00;;;;;;;7.40;100.00;102340.28;2097694;28;20052;-84
2023/02/08 05:55:30;;;;;;;3.67;1.80;;;;;;;7.45;100.00;102336.19;2094513;28;20166;-84
2023/02/08 05:56:52;;;;;;;5.10;2.55;;;;;;;7.46;100.00;102348.50;2094685;28;20203;-86
2023/02/08 05:58:15;;;;;;;10.27;4.30;;;;;;;7.41;100.00;102343.00;2103478;28;20055;-85
2023/02/08 05:59:37;;;;;;;7.72;4.85;;;;;;;7.39;100.00;102351.63;2097579;28;20471;-85
2023/02/08 06:01:00;;;;;;;5.72;2.92;;;;;;;7.37;100.00;102354.16;2096869;28;20052;-84
2023/02/08 06:02:22;;;;;;;7.50;2.97;;;;;;;7.36;100.00;102361.94;2102141;28;20058;-86
2023/02/08 06:03:44;;;;;;;4.90;1.50;;;;;;;7.36;100.00;102361.94;2083945;28;20692;-81
2023/02/08 06:05:06;;;;;;;5.00;2.28;;;;;;;7.34;100.00;102367.13;2090690;28;20056;-87
2023/02/08 06:06:29;;;;;;;5.25;2.20;;;;;;;7.35;100.00;102362.78;2094998;28;20151;-85
2023/02/08 06:07:53;;;;;;;5.97;2.20;;;;;;;7.37;100.00;102364.66;2084560;28;20049;-84
2023/02/08 06:09:15;;;;;;;7.30;4.93;;;;;;;7.37;100.00;102359.41;2092386;28;20139;-84
2023/02/08 06:10:37;;;;;;;9.02;4.15;;;;;;;7.38;100.00;102353.34;2094721;28;20041;-85
2023/02/08 06:11:59;;;;;;;6.18;4.18;;;;;;;7.35;100.00;102358.41;2086843;28;20060;-87
2023/02/08 06:13:21;;;;;;;6.85;4.88;;;;;;;7.33;100.00;102354.81;2086341;28;20382;-87
2023/02/08 06:14:43;;;;;;;8.35;5.15;;;;;;;7.31;100.00;102353.81;2086630;28;20060;-85
2023/02/08 06:16:07;;;;;;;5.68;3.85;;;;;;;7.31;100.00;102343.31;2086480;28;20122;-85
2023/02/08 06:17:29;;;;;;;3.95;1.95;;;;;;;7.32;100.00;102334.63;2099097;28;20388;-85
2023/02/08 06:18:51;;;;;;;6.13;2.38;;;;;;;7.31;100.00;102331.91;2095265;28;20493;-83
2023/02/08 06:20:13;;;;;;;11.25;4.43;;;;;;;7.28;100.00;102324.78;2089259;28;20049;-83
2023/02/08 06:21:35;;;;;;;7.82;4.25;;;;;;;7.28;100.00;102334.38;2086371;28;20053;-84
2023/02/08 06:23:00;;;;;;;4.88;2.60;;;;;;;7.31;100.00;102339.78;2094605;28;20083;-84
2023/02/08 06:24:24;;;;;;;7.68;4.63;;;;;;;7.37;100.00;102341.03;2097158;28;20479;-84
2023/02/08 06:25:46;;;;;;;6.05;2.70;;;;;;;7.42;100.00;102338.63;2094587;28;20045;-84
2023/02/08 06:27:07;;;;;;;6.88;2.63;;;;;;;7.38;100.00;102341.91;2094353;28;20439;-85
2023/02/08 06:28:29;;;;;;;5.10;2.92;;;;;;;7.36;100.00;102359.31;2091506;28;20108;-84
2023/02/08 06:29:52;;;;;;;5.22;3.10;;;;;;;7.38;100.00;102369.09;2093817;28;20122;-84
2023/02/08 06:31:14;;;;;;;3.80;2.38;;;;;;;7.42;100.00;102367.53;2094433;28;20048;-84
2023/02/08 06:32:36;;;;;;;4.47;1.50;;;;;;;7.47;100.00;102347.69;2097321;28;20055;-85
2023/02/08 06:33:59;;;;;;;5.57;2.55;;;;;;;7.54;100.00;102362.97;2102692;28;20044;-85
2023/02/08 06:35:21;;;;;;;4.43;2.47;;;;;;;7.62;100.00;102369.50;2102856;28;20043;-84
2023/02/08 06:36:44;;;;;;;6.30;2.17;;;;;;;7.67;100.00;102354.00;2103017;28;20488;-82
2023/02/08 06:38:08;;;;;;;7.95;3.05;;;;;;;7.70;100.00;102346.25;2102528;28;20130;-82